sensor_id;sensor_type;location;lat;lon;timestamp;P1;durP1;ratioP1;P2;durP2;ratioP2
9228;SDS011;4649;42.644;23.284;2023-04-08T00:00:10;16.40;;;13.97;;
9228;SDS011;4649;42.644;23.284;2023-04-08T00:02:44;14.60;;;13.17;;
9228;SDS011;4649;42.644;23.284;2023-04-08T00:08:18;14.03;;;12.63;;
9228;SDS011;4649;42.644;23.284;2023-04-08T00:10:49;17.20;;;13.53;;
9228;SDS011;4649;42.644;23.284;2023-04-08T00:13:32;15.53;;;13.93;;
9228;SDS011;4649;42.644;23.284;2023-04-08T00:16:14;14.27;;;13.07;;
9228;SDS011;4649;42.644;23.284;2023-04-08T00:19:01;14.27;;;12.93;;
9228;SDS011;4649;42.644;23.284;2023-04-08T00:21:40;15.13;;;13.70;;
9228;SDS011;4649;42.644;23.284;2023-04-08T00:24:13;17.20;;;14.40;;
9228;SDS011;4649;42.644;23.284;2023-04-08T00:26:43;15.27;;;13.50;;
9228;SDS011;4649;42.644;23.284;2023-04-08T00:29:20;14.30;;;13.00;;
9228;SDS011;4649;42.644;23.284;2023-04-08T00:32:06;15.20;;;13.60;;
9228;SDS011;4649;42.644;23.284;2023-04-08T00:34:36;15.87;;;14.27;;
9228;SDS011;4649;42.644;23.284;2023-04-08T00:40:18;13.87;;;12.63;;
9228;SDS011;4649;42.644;23.284;2023-04-08T00:42:59;13.93;;;12.73;;
9228;SDS011;4649;42.644;23.284;2023-04-08T00:45:38;17.93;;;13.97;;
9228;SDS011;4649;42.644;23.284;2023-04-08T00:48:19;9.60;;;8.87;;
9228;SDS011;4649;42.644;23.284;2023-04-08T00:50:56;12.10;;;11.07;;
9228;SDS011;4649;42.644;23.284;2023-04-08T00:53:44;13.23;;;11.87;;
9228;SDS011;4649;42.644;23.284;2023-04-08T00:56:23;15.50;;;14.00;;
9228;SDS011;4649;42.644;23.284;2023-04-08T00:59:08;19.87;;;15.63;;
9228;SDS011;4649;42.644;23.284;2023-04-08T01:04:08;12.73;;;11.63;;
9228;SDS011;4649;42.644;23.284;2023-04-08T01:06:48;12.03;;;11.03;;
9228;SDS011;4649;42.644;23.284;2023-04-08T01:09:26;17.97;;;14.07;;
9228;SDS011;4649;42.644;23.284;2023-04-08T01:12:02;16.47;;;14.73;;
9228;SDS011;4649;42.644;23.284;2023-04-08T01:14:34;16.10;;;14.57;;
9228;SDS011;4649;42.644;23.284;2023-04-08T01:17:26;14.37;;;13.07;;
9228;SDS011;4649;42.644;23.284;2023-04-08T01:19:59;13.60;;;12.37;;
9228;SDS011;4649;42.644;23.284;2023-04-08T01:22:33;9.77;;;8.90;;
9228;SDS011;4649;42.644;23.284;2023-04-08T01:25:20;16.87;;;12.33;;
9228;SDS011;4649;42.644;23.284;2023-04-08T01:27:57;14.03;;;12.60;;
9228;SDS011;4649;42.644;23.284;2023-04-08T01:30:26;15.60;;;14.00;;
9228;SDS011;4649;42.644;23.284;2023-04-08T01:33:01;14.77;;;13.27;;
9228;SDS011;4649;42.644;23.284;2023-04-08T01:35:33;14.53;;;12.30;;
9228;SDS011;4649;42.644;23.284;2023-04-08T01:38:23;12.97;;;10.93;;
9228;SDS011;4649;42.644;23.284;2023-04-08T01:41:07;11.20;;;10.30;;
9228;SDS011;4649;42.644;23.284;2023-04-08T01:43:56;9.50;;;8.80;;
9228;SDS011;4649;42.644;23.284;2023-04-08T01:46:51;9.23;;;8.63;;
9228;SDS011;4649;42.644;23.284;2023-04-08T01:49:25;9.20;;;8.53;;
9228;SDS011;4649;42.644;23.284;2023-04-08T01:51:54;10.00;;;8.97;;
9228;SDS011;4649;42.644;23.284;2023-04-08T01:54:44;10.20;;;9.27;;
9228;SDS011;4649;42.644;23.284;2023-04-08T01:57:27;9.67;;;8.73;;
9228;SDS011;4649;42.644;23.284;2023-04-08T02:00:05;10.07;;;9.13;;
9228;SDS011;4649;42.644;23.284;2023-04-08T02:02:49;9.43;;;8.73;;
9228;SDS011;4649;42.644;23.284;2023-04-08T02:05:19;9.63;;;8.73;;
9228;SDS011;4649;42.644;23.284;2023-04-08T02:07:57;9.57;;;8.77;;
9228;SDS011;4649;42.644;23.284;2023-04-08T02:10:34;8.90;;;8.27;;
9228;SDS011;4649;42.644;23.284;2023-04-08T02:13:31;9.07;;;8.37;;
9228;SDS011;4649;42.644;23.284;2023-04-08T02:16:27;10.60;;;8.90;;
9228;SDS011;4649;42.644;23.284;2023-04-08T02:19:27;11.50;;;10.57;;
9228;SDS011;4649;42.644;23.284;2023-04-08T02:22:09;14.13;;;12.77;;
9228;SDS011;4649;42.644;23.284;2023-04-08T02:24:46;15.20;;;13.50;;
9228;SDS011;4649;42.644;23.284;2023-04-08T02:27:19;19.40;;;16.60;;
9228;SDS011;4649;42.644;23.284;2023-04-08T02:29:52;22.37;;;17.40;;
9228;SDS011;4649;42.644;23.284;2023-04-08T02:32:36;20.73;;;17.53;;
9228;SDS011;4649;42.644;23.284;2023-04-08T02:35:07;23.80;;;17.20;;
9228;SDS011;4649;42.644;23.284;2023-04-08T02:38:05;21.57;;;17.27;;
9228;SDS011;4649;42.644;23.284;2023-04-08T02:40:41;17.60;;;15.87;;
9228;SDS011;4649;42.644;23.284;2023-04-08T02:43:12;14.13;;;12.63;;
9228;SDS011;4649;42.644;23.284;2023-04-08T02:45:52;13.53;;;12.43;;
9228;SDS011;4649;42.644;23.284;2023-04-08T02:51:11;15.23;;;12.90;;
9228;SDS011;4649;42.644;23.284;2023-04-08T02:53:53;13.60;;;12.33;;
9228;SDS011;4649;42.644;23.284;2023-04-08T02:56:24;16.57;;;13.17;;
9228;SDS011;4649;42.644;23.284;2023-04-08T02:59:08;13.83;;;12.47;;
9228;SDS011;4649;42.644;23.284;2023-04-08T03:01:49;12.17;;;10.90;;
9228;SDS011;4649;42.644;23.284;2023-04-08T03:04:19;9.67;;;8.87;;
9228;SDS011;4649;42.644;23.284;2023-04-08T03:09:55;10.23;;;9.53;;
9228;SDS011;4649;42.644;23.284;2023-04-08T03:12:39;9.87;;;9.17;;
9228;SDS011;4649;42.644;23.284;2023-04-08T03:15:21;12.90;;;11.83;;
9228;SDS011;4649;42.644;23.284;2023-04-08T03:18:09;15.07;;;13.33;;
9228;SDS011;4649;42.644;23.284;2023-04-08T03:20:57;13.63;;;12.43;;
9228;SDS011;4649;42.644;23.284;2023-04-08T03:23:30;12.23;;;11.23;;
9228;SDS011;4649;42.644;23.284;2023-04-08T03:29:21;11.87;;;10.77;;
9228;SDS011;4649;42.644;23.284;2023-04-08T03:32:09;10.63;;;9.77;;
9228;SDS011;4649;42.644;23.284;2023-04-08T03:34:53;12.27;;;11.17;;
9228;SDS011;4649;42.644;23.284;2023-04-08T03:37:23;16.00;;;14.50;;
9228;SDS011;4649;42.644;23.284;2023-04-08T03:42:27;13.73;;;12.50;;
9228;SDS011;4649;42.644;23.284;2023-04-08T03:45:04;18.47;;;10.83;;
9228;SDS011;4649;42.644;23.284;2023-04-08T03:47:39;16.70;;;13.73;;
9228;SDS011;4649;42.644;23.284;2023-04-08T03:52:47;13.83;;;12.57;;
9228;SDS011;4649;42.644;23.284;2023-04-08T03:55:22;14.93;;;13.33;;
9228;SDS011;4649;42.644;23.284;2023-04-08T03:58:04;14.63;;;13.20;;
9228;SDS011;4649;42.644;23.284;2023-04-08T04:00:37;15.40;;;13.80;;
9228;SDS011;4649;42.644;23.284;2023-04-08T04:03:18;13.33;;;12.23;;
9228;SDS011;4649;42.644;23.284;2023-04-08T04:05:58;14.50;;;12.70;;
9228;SDS011;4649;42.644;23.284;2023-04-08T04:08:41;19.10;;;12.20;;
9228;SDS011;4649;42.644;23.284;2023-04-08T04:11:13;15.13;;;13.00;;
9228;SDS011;4649;42.644;23.284;2023-04-08T04:13:52;14.93;;;13.33;;
9228;SDS011;4649;42.644;23.284;2023-04-08T04:16:29;16.93;;;12.37;;
9228;SDS011;4649;42.644;23.284;2023-04-08T04:22:25;10.77;;;9.87;;
9228;SDS011;4649;42.644;23.284;2023-04-08T04:24:58;11.07;;;10.03;;
9228;SDS011;4649;42.644;23.284;2023-04-08T04:27:41;14.63;;;10.43;;
9228;SDS011;4649;42.644;23.284;2023-04-08T04:30:20;13.07;;;10.87;;
9228;SDS011;4649;42.644;23.284;2023-04-08T04:32:54;12.90;;;11.70;;
9228;SDS011;4649;42.644;23.284;2023-04-08T04:35:23;13.20;;;11.80;;
9228;SDS011;4649;42.644;23.284;2023-04-08T04:37:51;18.43;;;13.23;;
9228;SDS011;4649;42.644;23.284;2023-04-08T04:40:26;18.87;;;15.93;;
9228;SDS011;4649;42.644;23.284;2023-04-08T04:43:07;21.37;;;16.27;;
9228;SDS011;4649;42.644;23.284;2023-04-08T04:46:08;23.30;;;17.47;;
9228;SDS011;4649;42.644;23.284;2023-04-08T04:48:39;21.77;;;18.30;;
9228;SDS011;4649;42.644;23.284;2023-04-08T04:51:31;17.80;;;15.87;;
9228;SDS011;4649;42.644;23.284;2023-04-08T04:54:19;21.40;;;17.33;;
9228;SDS011;4649;42.644;23.284;2023-04-08T04:57:00;23.33;;;16.53;;
9228;SDS011;4649;42.644;23.284;2023-04-08T04:59:32;19.20;;;17.20;;
9228;SDS011;4649;42.644;23.284;2023-04-08T05:02:16;21.80;;;17.53;;
9228;SDS011;4649;42.644;23.284;2023-04-08T05:04:49;18.80;;;14.27;;
9228;SDS011;4649;42.644;23.284;2023-04-08T05:07:26;19.93;;;15.53;;
9228;SDS011;4649;42.644;23.284;2023-04-08T05:09:59;16.97;;;15.17;;
9228;SDS011;4649;42.644;23.284;2023-04-08T05:12:44;17.23;;;15.67;;
9228;SDS011;4649;42.644;23.284;2023-04-08T05:15:21;18.23;;;16.33;;
9228;SDS011;4649;42.644;23.284;2023-04-08T05:18:04;17.23;;;15.53;;
9228;SDS011;4649;42.644;23.284;2023-04-08T05:23:55;18.13;;;15.53;;
9228;SDS011;4649;42.644;23.284;2023-04-08T05:26:37;18.20;;;15.30;;
9228;SDS011;4649;42.644;23.284;2023-04-08T05:29:17;16.27;;;14.57;;
9228;SDS011;4649;42.644;23.284;2023-04-08T05:31:52;26.27;;;14.97;;
9228;SDS011;4649;42.644;23.284;2023-04-08T05:34:39;21.57;;;16.00;;
9228;SDS011;4649;42.644;23.284;2023-04-08T05:37:29;14.27;;;12.57;;
9228;SDS011;4649;42.644;23.284;2023-04-08T05:40:12;15.50;;;14.10;;
9228;SDS011;4649;42.644;23.284;2023-04-08T05:43:18;15.00;;;13.40;;
9228;SDS011;4649;42.644;23.284;2023-04-08T05:46:04;14.00;;;12.70;;
9228;SDS011;4649;42.644;23.284;2023-04-08T05:48:35;20.07;;;15.20;;
9228;SDS011;4649;42.644;23.284;2023-04-08T05:54:03;26.87;;;15.97;;
9228;SDS011;4649;42.644;23.284;2023-04-08T05:56:32;16.77;;;14.17;;
9228;SDS011;4649;42.644;23.284;2023-04-08T05:59:14;20.43;;;15.43;;
9228;SDS011;4649;42.644;23.284;2023-04-08T06:01:55;16.50;;;14.20;;
9228;SDS011;4649;42.644;23.284;2023-04-08T06:04:28;14.67;;;12.80;;
9228;SDS011;4649;42.644;23.284;2023-04-08T06:07:18;14.60;;;12.03;;
9228;SDS011;4649;42.644;23.284;2023-04-08T06:09:51;18.53;;;14.23;;
9228;SDS011;4649;42.644;23.284;2023-04-08T06:12:22;14.60;;;13.10;;
9228;SDS011;4649;42.644;23.284;2023-04-08T06:14:53;13.10;;;11.90;;
9228;SDS011;4649;42.644;23.284;2023-04-08T06:17:32;14.80;;;13.40;;
9228;SDS011;4649;42.644;23.284;2023-04-08T06:20:27;19.03;;;13.70;;
9228;SDS011;4649;42.644;23.284;2023-04-08T06:23:13;14.70;;;13.13;;
9228;SDS011;4649;42.644;23.284;2023-04-08T06:26:03;13.40;;;11.57;;
9228;SDS011;4649;42.644;23.284;2023-04-08T06:28:52;13.30;;;12.07;;
9228;SDS011;4649;42.644;23.284;2023-04-08T06:31:34;12.30;;;11.30;;
9228;SDS011;4649;42.644;23.284;2023-04-08T06:35:00;12.23;;;10.57;;
9228;SDS011;4649;42.644;23.284;2023-04-08T06:37:29;14.27;;;10.83;;
9228;SDS011;4649;42.644;23.284;2023-04-08T06:40:04;11.73;;;10.63;;
9228;SDS011;4649;42.644;23.284;2023-04-08T06:42:36;14.13;;;11.37;;
9228;SDS011;4649;42.644;23.284;2023-04-08T06:45:15;17.80;;;10.97;;
9228;SDS011;4649;42.644;23.284;2023-04-08T06:47:44;18.80;;;12.27;;
9228;SDS011;4649;42.644;23.284;2023-04-08T06:50:11;18.90;;;10.73;;
9228;SDS011;4649;42.644;23.284;2023-04-08T06:52:40;12.17;;;11.00;;
9228;SDS011;4649;42.644;23.284;2023-04-08T06:55:10;19.93;;;10.97;;
9228;SDS011;4649;42.644;23.284;2023-04-08T06:57:45;18.60;;;12.80;;
9228;SDS011;4649;42.644;23.284;2023-04-08T07:00:15;14.40;;;10.83;;
9228;SDS011;4649;42.644;23.284;2023-04-08T07:02:45;13.60;;;12.30;;
9228;SDS011;4649;42.644;23.284;2023-04-08T07:05:15;14.13;;;11.87;;
9228;SDS011;4649;42.644;23.284;2023-04-08T07:07:43;15.80;;;13.27;;
9228;SDS011;4649;42.644;23.284;2023-04-08T07:10:17;14.10;;;12.63;;
9228;SDS011;4649;42.644;23.284;2023-04-08T07:12:47;13.43;;;11.50;;
9228;SDS011;4649;42.644;23.284;2023-04-08T07:15:28;15.37;;;12.40;;
9228;SDS011;4649;42.644;23.284;2023-04-08T07:18:07;12.30;;;11.27;;
9228;SDS011;4649;42.644;23.284;2023-04-08T07:20:50;12.57;;;11.33;;
9228;SDS011;4649;42.644;23.284;2023-04-08T07:23:21;12.47;;;11.10;;
9228;SDS011;4649;42.644;23.284;2023-04-08T07:40:03;11.60;;;10.80;;
9228;SDS011;4649;42.644;23.284;2023-04-08T07:43:13;11.93;;;10.20;;
9228;SDS011;4649;42.644;23.284;2023-04-08T07:48:40;12.33;;;11.00;;
9228;SDS011;4649;42.644;23.284;2023-04-08T07:51:22;11.20;;;10.13;;
9228;SDS011;4649;42.644;23.284;2023-04-08T08:00:14;11.10;;;10.17;;
9228;SDS011;4649;42.644;23.284;2023-04-08T09:31:18;10.37;;;9.53;;
9228;SDS011;4649;42.644;23.284;2023-04-08T09:34:10;12.03;;;10.93;;
9228;SDS011;4649;42.644;23.284;2023-04-08T09:36:43;10.30;;;9.50;;
9228;SDS011;4649;42.644;23.284;2023-04-08T11:02:53;12.33;;;11.23;;
9228;SDS011;4649;42.644;23.284;2023-04-08T11:11:12;12.23;;;11.03;;
9228;SDS011;4649;42.644;23.284;2023-04-08T11:16:46;13.90;;;11.17;;
9228;SDS011;4649;42.644;23.284;2023-04-08T11:26:05;12.00;;;10.93;;
9228;SDS011;4649;42.644;23.284;2023-04-08T11:29:24;11.23;;;10.23;;
9228;SDS011;4649;42.644;23.284;2023-04-08T11:51:12;9.20;;;7.10;;
9228;SDS011;4649;42.644;23.284;2023-04-08T12:51:48;6.40;;;5.83;;
9228;SDS011;4649;42.644;23.284;2023-04-08T13:06:21;6.20;;;5.80;;
9228;SDS011;4649;42.644;23.284;2023-04-08T13:39:21;8.13;;;7.40;;
9228;SDS011;4649;42.644;23.284;2023-04-08T13:48:31;7.70;;;7.07;;
9228;SDS011;4649;42.644;23.284;2023-04-08T13:51:22;6.80;;;6.40;;
9228;SDS011;4649;42.644;23.284;2023-04-08T13:54:05;5.97;;;5.57;;
9228;SDS011;4649;42.644;23.284;2023-04-08T14:00:07;6.03;;;5.63;;
9228;SDS011;4649;42.644;23.284;2023-04-08T14:03:23;7.07;;;6.67;;
9228;SDS011;4649;42.644;23.284;2023-04-08T14:06:26;6.90;;;6.50;;
9228;SDS011;4649;42.644;23.284;2023-04-08T14:09:03;8.73;;;6.00;;
9228;SDS011;4649;42.644;23.284;2023-04-08T14:11:32;6.63;;;6.23;;
9228;SDS011;4649;42.644;23.284;2023-04-08T14:14:22;7.17;;;6.67;;
9228;SDS011;4649;42.644;23.284;2023-04-08T14:16:52;8.17;;;7.57;;
9228;SDS011;4649;42.644;23.284;2023-04-08T14:50:54;8.03;;;7.53;;
9228;SDS011;4649;42.644;23.284;2023-04-08T14:53:47;7.70;;;7.10;;
9228;SDS011;4649;42.644;23.284;2023-04-08T14:56:50;7.67;;;7.17;;
9228;SDS011;4649;42.644;23.284;2023-04-08T15:05:17;7.30;;;6.70;;
9228;SDS011;4649;42.644;23.284;2023-04-08T19:03:47;10.13;;;9.43;;
9228;SDS011;4649;42.644;23.284;2023-04-08T19:09:55;11.37;;;10.47;;
9228;SDS011;4649;42.644;23.284;2023-04-08T19:49:57;12.80;;;11.80;;
9228;SDS011;4649;42.644;23.284;2023-04-08T20:03:58;16.47;;;15.10;;
9228;SDS011;4649;42.644;23.284;2023-04-08T20:13:22;22.50;;;18.63;;
9228;SDS011;4649;42.644;23.284;2023-04-08T20:16:22;20.13;;;18.07;;
9228;SDS011;4649;42.644;23.284;2023-04-08T20:19:15;19.43;;;17.43;;
9228;SDS011;4649;42.644;23.284;2023-04-08T20:24:46;21.77;;;18.47;;
9228;SDS011;4649;42.644;23.284;2023-04-08T20:27:31;19.63;;;17.77;;
9228;SDS011;4649;42.644;23.284;2023-04-08T20:36:47;20.80;;;18.57;;
9228;SDS011;4649;42.644;23.284;2023-04-08T20:40:05;20.03;;;18.00;;
9228;SDS011;4649;42.644;23.284;2023-04-08T20:48:06;20.23;;;18.33;;
9228;SDS011;4649;42.644;23.284;2023-04-08T21:03:55;20.13;;;18.23;;
9228;SDS011;4649;42.644;23.284;2023-04-08T21:06:37;21.27;;;19.10;;
9228;SDS011;4649;42.644;23.284;2023-04-08T21:31:52;24.50;;;21.63;;
9228;SDS011;4649;42.644;23.284;2023-04-08T21:34:41;22.60;;;20.27;;
9228;SDS011;4649;42.644;23.284;2023-04-08T21:39:49;21.97;;;19.63;;
9228;SDS011;4649;42.644;23.284;2023-04-08T21:43:01;22.30;;;20.07;;
9228;SDS011;4649;42.644;23.284;2023-04-08T21:45:43;25.00;;;20.53;;
9228;SDS011;4649;42.644;23.284;2023-04-08T21:52:11;24.43;;;19.50;;
9228;SDS011;4649;42.644;23.284;2023-04-08T21:55:03;22.23;;;19.90;;
9228;SDS011;4649;42.644;23.284;2023-04-08T22:06:10;20.17;;;18.27;;
9228;SDS011;4649;42.644;23.284;2023-04-08T22:15:28;22.57;;;20.37;;
9228;SDS011;4649;42.644;23.284;2023-04-08T22:18:15;24.03;;;21.63;;
9228;SDS011;4649;42.644;23.284;2023-04-08T22:21:01;26.20;;;23.47;;
9228;SDS011;4649;42.644;23.284;2023-04-08T22:27:35;23.33;;;20.87;;
9228;SDS011;4649;42.644;23.284;2023-04-08T22:33:22;22.40;;;20.27;;
9228;SDS011;4649;42.644;23.284;2023-04-08T22:36:27;24.00;;;21.50;;
9228;SDS011;4649;42.644;23.284;2023-04-08T22:42:06;26.43;;;23.10;;
9228;SDS011;4649;42.644;23.284;2023-04-08T22:50:39;22.77;;;20.47;;
9228;SDS011;4649;42.644;23.284;2023-04-08T22:53:27;21.37;;;19.20;;
9228;SDS011;4649;42.644;23.284;2023-04-08T22:56:38;21.53;;;19.23;;
9228;SDS011;4649;42.644;23.284;2023-04-08T23:04:57;21.60;;;19.47;;
9228;SDS011;4649;42.644;23.284;2023-04-08T23:07:46;21.37;;;19.20;;
9228;SDS011;4649;42.644;23.284;2023-04-08T23:13:08;23.63;;;21.10;;
9228;SDS011;4649;42.644;23.284;2023-04-08T23:16:16;26.30;;;22.60;;
9228;SDS011;4649;42.644;23.284;2023-04-08T23:27:34;23.27;;;21.00;;
9228;SDS011;4649;42.644;23.284;2023-04-08T23:30:11;22.43;;;19.90;;
9228;SDS011;4649;42.644;23.284;2023-04-08T23:36:06;20.97;;;18.97;;
9228;SDS011;4649;42.644;23.284;2023-04-08T23:38:55;20.63;;;18.63;;
9228;SDS011;4649;42.644;23.284;2023-04-08T23:42:07;20.40;;;18.40;;
